Terminal Aerodrome Forecast
Issued by NWS

Home | Current Version | Previous Version | Graphics & Text | Print | Product List | Glossary On
Versions: 1 2 3 4 5 6 7 8 9 10 11 12 13 14 15 16 17
544
FTUS43 KABR 241137
TAFPIR
TAF
KPIR 241137Z 2412/2512 03006KT P6SM SCT250
     FM241600 10006KT P6SM SCT050
     FM250300 11009KT P6SM SHRA VCTS OVC060CB=

USA.gov is the U.S. government's official web portal to all federal, state and local government web resources and services.